Salem, NH (03079)

7:01 PM EST on February 26, 2017 (GMT -0500)
N1EXT | | Change Station

Elev 233 ft 42.80 °N, 71.21 °W | Updated 12 seconds ago

Clear
Clear
34.5 °F
Feels Like 29 °F
N
5.8
Wind Variable Wind from WNW
Gusts 5.8 mph

Today
High -- | Low -- °F
--% Chance of Precip.
Yesterday
High -- | Low -- °F
Precip. -- in
Pressure 30.04 in
Visibility 10.0 miles
Clouds Clear
Windchill 29 °F
Dew Point 18 °F
Humidity 51%
Rainfall 0.00 in
Snow Depth Not available.
6:25 AM 5:30 PM
New Moon, 0% visible
METAR KLWM 262354Z 29007KT 10SM CLR 01/M11 A3003 RMK AO2 SLP171 T00111106 10056 20006 53047
Pressure 30.04 in
Visibility 10.0 miles
Clouds Clear
Windchill 29 °F
Dew Point 18 °F
Humidity 51%
Rainfall 0.00 in
Snow Depth Not available.
6:25 AM 5:30 PM
New Moon, 0% visible
METAR KLWM 262354Z 29007KT 10SM CLR 01/M11 A3003 RMK AO2 SLP171 T00111106 10056 20006 53047

Get Your Daily Forecast Email!

Thanks for signing up!

Be on the lookout for a verification email in your inbox.

You'll start receiving the daily forecast at 8 AM.

×

10-Day Weather Forecast

Almanac

Astronomy

Feb. 26, 2017 Rise Set
Actual Time
Civil Twilight
Nautical Twilight
Astronomical Twilight
Moon
Length of Visible Light
Length of Day
Tomorrow will be .
, % of the Moon is Illuminated

Today's Extremes

State Highs State Lows

Community

WunderPhotos

Upload Photos

1,962,540 photos uploaded!

WunderBlog® & News

Nearby

Air Quality

  Air Quality AQ Index Pollutant
Not available.

Snow Depth

Station Depth Elevation

Earthquake Activity

City Distance Mag. Time & Date
Minimum magnitude displayed is 2.5.

Coastal Water Temperatures

Place Temperature

Stations

Nearby Weather Stations

Station Location Temp. Windchill Dew Point Humidity Wind Precip. Elev Updated Type
                   

Watches & Warnings

There are currently no watches in effect.